sensor_id;sensor_type;location;lat;lon;timestamp;temperature;humidity
63407;SHT31;49543;45.892;10.838;2023-05-29T07:47:00;24.68;66.90
63407;SHT31;49543;45.892;10.838;2023-05-29T08:23:02;26.24;63.72
63407;SHT31;49543;45.892;10.838;2023-05-29T08:25:27;26.35;63.25
63407;SHT31;49543;45.892;10.838;2023-05-29T08:27:53;26.41;62.18
63407;SHT31;49543;45.892;10.838;2023-05-29T08:30:18;26.49;62.51
63407;SHT31;49543;45.892;10.838;2023-05-29T08:32:44;26.59;62.17
63407;SHT31;49543;45.892;10.838;2023-05-29T08:35:09;26.66;60.79
63407;SHT31;49543;45.892;10.838;2023-05-29T08:37:34;26.79;60.49
63407;SHT31;49543;45.892;10.838;2023-05-29T08:40:00;26.80;61.30
63407;SHT31;49543;45.892;10.838;2023-05-29T08:42:36;26.83;60.20
63407;SHT31;49543;45.892;10.838;2023-05-29T08:45:02;26.88;60.57
63407;SHT31;49543;45.892;10.838;2023-05-29T08:47:28;26.98;61.29
63407;SHT31;49543;45.892;10.838;2023-05-29T08:49:55;27.11;59.73
63407;SHT31;49543;45.892;10.838;2023-05-29T08:52:22;27.14;59.97
63407;SHT31;49543;45.892;10.838;2023-05-29T08:54:48;27.12;59.68
63407;SHT31;49543;45.892;10.838;2023-05-29T08:57:14;27.10;59.92
63407;SHT31;49543;45.892;10.838;2023-05-29T08:59:42;27.18;60.18
63407;SHT31;49543;45.892;10.838;2023-05-29T09:02:08;27.18;58.37
63407;SHT31;49543;45.892;10.838;2023-05-29T09:04:33;27.10;59.25
63407;SHT31;49543;45.892;10.838;2023-05-29T09:06:59;27.04;58.70
63407;SHT31;49543;45.892;10.838;2023-05-29T09:09:27;26.97;60.65
63407;SHT31;49543;45.892;10.838;2023-05-29T09:11:53;26.88;59.51
63407;SHT31;49543;45.892;10.838;2023-05-29T09:16:59;26.77;59.87
63407;SHT31;49543;45.892;10.838;2023-05-29T09:19:25;26.75;59.99
63407;SHT31;49543;45.892;10.838;2023-05-29T09:21:50;26.79;59.24
63407;SHT31;49543;45.892;10.838;2023-05-29T09:24:16;26.77;59.38
63407;SHT31;49543;45.892;10.838;2023-05-29T09:26:50;26.75;59.89
63407;SHT31;49543;45.892;10.838;2023-05-29T09:29:16;27.01;58.36
63407;SHT31;49543;45.892;10.838;2023-05-29T09:31:47;27.35;59.84
63407;SHT31;49543;45.892;10.838;2023-05-29T09:34:13;27.63;61.08
63407;SHT31;49543;45.892;10.838;2023-05-29T09:36:38;27.83;59.15
63407;SHT31;49543;45.892;10.838;2023-05-29T09:39:03;27.82;59.85
63407;SHT31;49543;45.892;10.838;2023-05-29T09:41:29;27.67;56.24
63407;SHT31;49543;45.892;10.838;2023-05-29T09:43:56;27.49;57.82
63407;SHT31;49543;45.892;10.838;2023-05-29T09:46:21;27.38;58.97
63407;SHT31;49543;45.892;10.838;2023-05-29T09:48:47;27.37;60.79
63407;SHT31;49543;45.892;10.838;2023-05-29T09:51:19;27.32;61.86
63407;SHT31;49543;45.892;10.838;2023-05-29T09:53:47;27.25;61.33
63407;SHT31;49543;45.892;10.838;2023-05-29T09:56:12;27.15;59.99
63407;SHT31;49543;45.892;10.838;2023-05-29T09:58:40;27.08;60.47
63407;SHT31;49543;45.892;10.838;2023-05-29T10:01:11;27.12;63.45
63407;SHT31;49543;45.892;10.838;2023-05-29T10:03:36;27.11;60.61
63407;SHT31;49543;45.892;10.838;2023-05-29T10:06:01;27.18;58.09
63407;SHT31;49543;45.892;10.838;2023-05-29T10:08:29;27.24;58.92
63407;SHT31;49543;45.892;10.838;2023-05-29T10:11:01;26.84;59.14
63407;SHT31;49543;45.892;10.838;2023-05-29T10:13:28;26.52;59.93
63407;SHT31;49543;45.892;10.838;2023-05-29T10:15:56;26.68;59.33
63407;SHT31;49543;45.892;10.838;2023-05-29T10:18:56;26.49;59.39
63407;SHT31;49543;45.892;10.838;2023-05-29T10:21:14;26.45;59.22
63407;SHT31;49543;45.892;10.838;2023-05-29T10:23:40;26.43;60.16
63407;SHT31;49543;45.892;10.838;2023-05-29T10:26:18;26.45;60.48
63407;SHT31;49543;45.892;10.838;2023-05-29T10:28:48;26.70;59.84
63407;SHT31;49543;45.892;10.838;2023-05-29T10:31:16;26.59;60.57
63407;SHT31;49543;45.892;10.838;2023-05-29T10:36:19;26.12;63.15
63407;SHT31;49543;45.892;10.838;2023-05-29T10:38:47;26.02;63.31
63407;SHT31;49543;45.892;10.838;2023-05-29T10:43:57;26.57;60.66
63407;SHT31;49543;45.892;10.838;2023-05-29T10:47:08;26.57;60.98
63407;SHT31;49543;45.892;10.838;2023-05-29T10:49:21;27.41;59.04
63407;SHT31;49543;45.892;10.838;2023-05-29T10:51:47;28.90;56.82
63407;SHT31;49543;45.892;10.838;2023-05-29T10:54:13;28.56;57.40
63407;SHT31;49543;45.892;10.838;2023-05-29T10:56:39;28.27;57.67
63407;SHT31;49543;45.892;10.838;2023-05-29T10:59:07;29.19;54.66
63407;SHT31;49543;45.892;10.838;2023-05-29T11:01:33;28.72;53.61
63407;SHT31;49543;45.892;10.838;2023-05-29T11:06:42;27.41;56.28
63407;SHT31;49543;45.892;10.838;2023-05-29T11:12:24;27.44;59.14
63407;SHT31;49543;45.892;10.838;2023-05-29T11:15:06;28.00;56.76
63407;SHT31;49543;45.892;10.838;2023-05-29T11:17:34;28.24;55.73
63407;SHT31;49543;45.892;10.838;2023-05-29T11:20:08;28.28;56.42
63407;SHT31;49543;45.892;10.838;2023-05-29T11:25:05;28.08;54.11
63407;SHT31;49543;45.892;10.838;2023-05-29T11:27:32;28.43;54.99
63407;SHT31;49543;45.892;10.838;2023-05-29T11:29:57;28.41;54.06
63407;SHT31;49543;45.892;10.838;2023-05-29T11:32:23;27.89;55.30
63407;SHT31;49543;45.892;10.838;2023-05-29T11:34:51;27.83;56.05
63407;SHT31;49543;45.892;10.838;2023-05-29T11:37:18;27.46;56.24
63407;SHT31;49543;45.892;10.838;2023-05-29T11:39:43;27.41;56.38
63407;SHT31;49543;45.892;10.838;2023-05-29T11:42:10;26.98;57.66
63407;SHT31;49543;45.892;10.838;2023-05-29T11:44:36;26.64;58.61
63407;SHT31;49543;45.892;10.838;2023-05-29T16:47:52;26.35;69.49
63407;SHT31;49543;45.892;10.838;2023-05-29T16:50:17;26.35;70.48
63407;SHT31;49543;45.892;10.838;2023-05-29T16:52:42;26.33;71.34
63407;SHT31;49543;45.892;10.838;2023-05-29T16:55:08;26.26;70.33
63407;SHT31;49543;45.892;10.838;2023-05-29T16:57:33;26.25;69.33
63407;SHT31;49543;45.892;10.838;2023-05-29T17:00:01;26.15;68.36
63407;SHT31;49543;45.892;10.838;2023-05-29T17:02:26;26.08;66.03
63407;SHT31;49543;45.892;10.838;2023-05-29T17:04:52;26.08;66.61
63407;SHT31;49543;45.892;10.838;2023-05-29T17:07:17;26.05;69.63
63407;SHT31;49543;45.892;10.838;2023-05-29T17:09:43;26.04;70.73
63407;SHT31;49543;45.892;10.838;2023-05-29T17:12:08;26.02;70.94
63407;SHT31;49543;45.892;10.838;2023-05-29T17:14:35;25.97;70.50
63407;SHT31;49543;45.892;10.838;2023-05-29T17:17:00;25.94;70.70
63407;SHT31;49543;45.892;10.838;2023-05-29T17:19:25;25.83;69.52
63407;SHT31;49543;45.892;10.838;2023-05-29T17:21:51;25.78;68.23
63407;SHT31;49543;45.892;10.838;2023-05-29T17:24:16;25.74;68.53
63407;SHT31;49543;45.892;10.838;2023-05-29T17:26:42;25.77;68.81
63407;SHT31;49543;45.892;10.838;2023-05-29T17:29:07;25.70;68.55
63407;SHT31;49543;45.892;10.838;2023-05-29T17:31:32;25.67;67.37
63407;SHT31;49543;45.892;10.838;2023-05-29T17:33:58;25.60;68.64
63407;SHT31;49543;45.892;10.838;2023-05-29T17:36:23;25.53;69.77
63407;SHT31;49543;45.892;10.838;2023-05-29T17:38:48;25.46;70.10
63407;SHT31;49543;45.892;10.838;2023-05-29T17:41:16;25.39;69.50
63407;SHT31;49543;45.892;10.838;2023-05-29T17:43:42;25.29;68.90
63407;SHT31;49543;45.892;10.838;2023-05-29T17:46:07;25.22;67.78
63407;SHT31;49543;45.892;10.838;2023-05-29T17:48:32;25.12;68.13
63407;SHT31;49543;45.892;10.838;2023-05-29T17:50:58;25.12;68.73
63407;SHT31;49543;45.892;10.838;2023-05-29T17:53:24;25.11;69.61
63407;SHT31;49543;45.892;10.838;2023-05-29T17:55:51;25.09;70.18
63407;SHT31;49543;45.892;10.838;2023-05-29T17:58:16;25.07;68.99
63407;SHT31;49543;45.892;10.838;2023-05-29T18:00:41;24.99;68.76
63407;SHT31;49543;45.892;10.838;2023-05-29T18:03:07;24.95;67.58
63407;SHT31;49543;45.892;10.838;2023-05-29T18:05:32;24.90;67.79
63407;SHT31;49543;45.892;10.838;2023-05-29T18:07:58;24.87;67.94
63407;SHT31;49543;45.892;10.838;2023-05-29T18:10:23;24.80;67.53
63407;SHT31;49543;45.892;10.838;2023-05-29T18:12:49;24.71;66.09
63407;SHT31;49543;45.892;10.838;2023-05-29T18:15:15;24.63;66.93
63407;SHT31;49543;45.892;10.838;2023-05-29T18:17:42;24.64;68.16
63407;SHT31;49543;45.892;10.838;2023-05-29T18:20:07;24.64;69.79
63407;SHT31;49543;45.892;10.838;2023-05-29T21:37:00;22.94;73.52
63407;SHT31;49543;45.892;10.838;2023-05-29T21:39:25;22.92;72.57
63407;SHT31;49543;45.892;10.838;2023-05-29T21:41:51;22.89;71.53
63407;SHT31;49543;45.892;10.838;2023-05-29T21:44:16;22.87;72.12
63407;SHT31;49543;45.892;10.838;2023-05-29T21:46:43;22.85;72.70
63407;SHT31;49543;45.892;10.838;2023-05-29T21:49:08;22.82;72.20
